Terminal Aerodrome Forecast
Issued by NWS Mt. Holly, NJ

Home | Current Version | Previous Version | Text Only | Print | Product List | Glossary On
Versions: 1 2 3 4 5 6 7 8 9 10 11 12 13 14 15 16 17 18 19 20 21
000
FTUS41 KPHI 280500
TAFACY
TAF
KACY 280525Z 2806/2906 30010KT P6SM SCT040
      TEMPO 2808/2812 BKN040
     FM281400 30012G22KT P6SM FEW050
     FM282200 30006KT P6SM BKN200
     FM290400 VRB03KT P6SM BKN080=

USA.gov is the U.S. government's official web portal to all federal, state and local government web resources and services.